Time;durP1;ratioP1;P1;durP2;ratioP2;P2;SDS_P1;SDS_P2;PMS_P1;PMS_P2;Temp;Humidity;BMP_temperature;BMP_pressure;BME280_temperature;BME280_humidity;BME280_pressure;Samples;Min_cycle;Max_cycle;Signal;HPM_P1;HPM_P2
2024/01/03 00:02:17;;;;;;;21.15;4.45;;;;;;;;;;6275901;22;20019;-84
2024/01/03 00:04:43;;;;;;;17.80;4.13;;;;;;;;;;6250624;22;20027;-84
2024/01/03 00:07:10;;;;;;;19.15;4.68;;;;;;;;;;6250488;22;20098;-84
2024/01/03 00:09:36;;;;;;;17.60;4.22;;;;;;;;;;6276111;22;20023;-85
2024/01/03 00:12:03;;;;;;;16.77;4.25;;;;;;;;;;6251887;22;20019;-84
2024/01/03 00:14:31;;;;;;;16.65;4.35;;;;;;;;;;6279554;22;20016;-84
2024/01/03 00:17:00;;;;;;;20.67;4.13;;;;;;;;;;6280937;22;20020;-83
2024/01/03 00:19:26;;;;;;;19.45;4.03;;;;;;;;;;6255576;22;20015;-83
2024/01/03 00:21:52;;;;;;;14.63;3.38;;;;;;;;;;6254869;22;20012;-83
2024/01/03 00:24:21;;;;;;;14.05;3.55;;;;;;;;;;6253963;22;20019;-83
2024/01/03 00:26:50;;;;;;;13.05;3.35;;;;;;;;;;6280741;22;20311;-83
2024/01/03 00:29:22;;;;;;;14.75;4.75;;;;;;;;;;6254754;22;20016;-84
2024/01/03 00:31:48;;;;;;;10.90;3.35;;;;;;;;;;6253933;22;20494;-83
2024/01/03 00:34:24;;;;;;;13.02;3.45;;;;;;;;;;6280894;22;20485;-84
2024/01/03 00:36:50;;;;;;;18.33;4.25;;;;;;;;;;6281038;22;20332;-85
2024/01/03 00:39:18;;;;;;;15.13;4.43;;;;;;;;;;6253211;22;20024;-83
2024/01/03 00:41:44;;;;;;;17.33;4.40;;;;;;;;;;6254436;22;20016;-83
2024/01/03 00:44:11;;;;;;;22.55;3.78;;;;;;;;;;6278757;22;20448;-84
2024/01/03 00:46:37;;;;;;;16.23;3.80;;;;;;;;;;6252035;22;20020;-84
2024/01/03 00:49:05;;;;;;;21.00;4.13;;;;;;;;;;6280320;22;20079;-84
2024/01/03 00:51:31;;;;;;;14.80;3.75;;;;;;;;;;6280197;22;20023;-83
2024/01/03 00:53:57;;;;;;;19.15;4.35;;;;;;;;;;6253241;22;20098;-84
2024/01/03 00:56:23;;;;;;;15.63;3.60;;;;;;;;;;6279366;22;20038;-83
2024/01/03 00:58:49;;;;;;;16.77;4.00;;;;;;;;;;6253219;22;20079;-84
2024/01/03 01:01:16;;;;;;;13.98;3.45;;;;;;;;;;6278264;22;20077;-83
2024/01/03 01:03:42;;;;;;;19.20;3.90;;;;;;;;;;6252618;22;20030;-84
2024/01/03 01:06:08;;;;;;;17.38;4.30;;;;;;;;;;6277607;22;20051;-84
2024/01/03 01:08:34;;;;;;;23.90;4.55;;;;;;;;;;6252554;22;20027;-84
2024/01/03 01:11:00;;;;;;;17.42;4.63;;;;;;;;;;6252819;22;20313;-84
2024/01/03 01:13:26;;;;;;;23.38;4.47;;;;;;;;;;6254313;22;20026;-83
2024/01/03 01:15:52;;;;;;;16.90;4.10;;;;;;;;;;6253747;22;20399;-83
2024/01/03 01:18:18;;;;;;;18.17;4.18;;;;;;;;;;6253343;22;20011;-83
2024/01/03 01:20:45;;;;;;;19.42;4.80;;;;;;;;;;6253180;22;20016;-84
2024/01/03 01:23:11;;;;;;;14.60;4.50;;;;;;;;;;6253474;22;20145;-83
2024/01/03 01:25:37;;;;;;;19.42;3.97;;;;;;;;;;6253386;22;20026;-83
2024/01/03 01:28:03;;;;;;;21.77;4.93;;;;;;;;;;6274919;22;20388;-83
2024/01/03 01:30:29;;;;;;;15.80;3.85;;;;;;;;;;6274890;22;20432;-84
2024/01/03 01:32:55;;;;;;;20.15;3.97;;;;;;;;;;6275123;22;20026;-84
2024/01/03 01:35:21;;;;;;;20.63;4.78;;;;;;;;;;6277257;22;20015;-84
2024/01/03 01:37:48;;;;;;;24.10;4.55;;;;;;;;;;6251945;22;20073;-84
2024/01/03 01:40:14;;;;;;;19.98;4.65;;;;;;;;;;6252303;22;20070;-84
2024/01/03 01:42:41;;;;;;;16.00;3.80;;;;;;;;;;6251583;22;20103;-85
2024/01/03 01:45:09;;;;;;;22.88;4.55;;;;;;;;;;6251966;22;20437;-85
2024/01/03 01:47:35;;;;;;;17.67;5.18;;;;;;;;;;6251331;22;20444;-83
2024/01/03 01:50:01;;;;;;;16.35;4.43;;;;;;;;;;6252375;22;20023;-83
2024/01/03 01:52:27;;;;;;;21.60;4.70;;;;;;;;;;6277704;22;20015;-83
2024/01/03 01:54:53;;;;;;;19.60;4.43;;;;;;;;;;6252187;22;20330;-84
2024/01/03 01:57:20;;;;;;;19.70;4.20;;;;;;;;;;6251089;22;20019;-84
2024/01/03 01:59:47;;;;;;;17.55;3.97;;;;;;;;;;6277293;22;20016;-83
2024/01/03 02:02:14;;;;;;;15.40;3.92;;;;;;;;;;6277682;22;20122;-84
2024/01/03 02:04:40;;;;;;;17.33;3.53;;;;;;;;;;6278316;22;20022;-84
2024/01/03 02:07:08;;;;;;;18.48;3.85;;;;;;;;;;6277302;22;20015;-84
2024/01/03 02:09:34;;;;;;;19.52;4.72;;;;;;;;;;6252023;22;20019;-84
2024/01/03 02:12:00;;;;;;;15.32;3.85;;;;;;;;;;6277393;22;20405;-84
2024/01/03 02:14:26;;;;;;;17.88;3.80;;;;;;;;;;6277773;22;20038;-84
2024/01/03 02:16:52;;;;;;;14.43;3.65;;;;;;;;;;6251864;22;20070;-84
2024/01/03 02:19:18;;;;;;;20.05;4.35;;;;;;;;;;6251854;22;20016;-84
2024/01/03 02:21:44;;;;;;;14.85;4.07;;;;;;;;;;6251777;22;20016;-85
2024/01/03 02:24:10;;;;;;;15.15;3.70;;;;;;;;;;6251649;22;20459;-85
2024/01/03 02:26:36;;;;;;;19.30;4.28;;;;;;;;;;6277267;22;20035;-84
2024/01/03 02:29:03;;;;;;;14.48;3.53;;;;;;;;;;6251005;22;20098;-85
2024/01/03 02:31:29;;;;;;;17.98;3.63;;;;;;;;;;6250789;22;20031;-86
2024/01/03 02:33:55;;;;;;;15.05;3.50;;;;;;;;;;6251429;22;20027;-84
2024/01/03 02:36:21;;;;;;;17.23;4.10;;;;;;;;;;6278641;22;20015;-85
2024/01/03 02:38:50;;;;;;;18.80;3.75;;;;;;;;;;6250594;22;20054;-85
2024/01/03 02:41:16;;;;;;;13.15;3.40;;;;;;;;;;6251268;22;20019;-86
2024/01/03 02:43:42;;;;;;;12.13;3.55;;;;;;;;;;6251102;22;20023;-85
2024/01/03 02:46:08;;;;;;;12.13;3.35;;;;;;;;;;6249955;22;20019;-86
2024/01/03 02:48:34;;;;;;;16.70;3.67;;;;;;;;;;6251494;22;20102;-84
2024/01/03 02:51:06;;;;;;;20.40;3.90;;;;;;;;;;6250699;22;20069;-85
2024/01/03 02:53:32;;;;;;;15.98;3.40;;;;;;;;;;6250757;22;20019;-85
2024/01/03 02:55:59;;;;;;;23.15;4.38;;;;;;;;;;6250724;22;20012;-86
2024/01/03 02:58:25;;;;;;;15.15;3.45;;;;;;;;;;6251115;22;20016;-86
2024/01/03 03:00:51;;;;;;;15.27;3.40;;;;;;;;;;6250394;22;20016;-85
2024/01/03 03:03:17;;;;;;;12.02;3.42;;;;;;;;;;6250336;22;20346;-86
2024/01/03 03:05:43;;;;;;;16.35;3.55;;;;;;;;;;6250858;22;20020;-86
2024/01/03 03:08:09;;;;;;;14.88;3.80;;;;;;;;;;6250928;22;20452;-85
2024/01/03 03:10:35;;;;;;;17.83;3.28;;;;;;;;;;6251041;22;20012;-85
2024/01/03 03:13:01;;;;;;;11.07;3.42;;;;;;;;;;6250641;22;20049;-85
2024/01/03 03:15:27;;;;;;;14.40;3.55;;;;;;;;;;6251006;22;20096;-85
2024/01/03 03:17:53;;;;;;;12.02;3.00;;;;;;;;;;6250328;22;20379;-85
2024/01/03 03:20:20;;;;;;;13.85;3.10;;;;;;;;;;6250176;22;20051;-86
2024/01/03 03:22:46;;;;;;;16.13;3.38;;;;;;;;;;6275949;22;20027;-86
2024/01/03 03:25:12;;;;;;;15.90;3.80;;;;;;;;;;6250570;22;20012;-85
2024/01/03 03:27:40;;;;;;;11.18;3.22;;;;;;;;;;6250716;22;20023;-85
2024/01/03 03:30:07;;;;;;;18.27;3.95;;;;;;;;;;6250605;22;20352;-86
2024/01/03 03:32:33;;;;;;;17.35;3.35;;;;;;;;;;6275971;22;20011;-86
2024/01/03 03:34:59;;;;;;;12.52;3.40;;;;;;;;;;6250387;22;20022;-86
2024/01/03 03:37:25;;;;;;;9.23;2.80;;;;;;;;;;6250363;22;20341;-86
2024/01/03 03:39:51;;;;;;;10.20;2.88;;;;;;;;;;6275992;22;20034;-86
2024/01/03 03:42:22;;;;;;;9.80;2.50;;;;;;;;;;6250067;22;20038;-85
2024/01/03 03:44:48;;;;;;;15.93;2.95;;;;;;;;;;6250266;22;20053;-86
2024/01/03 03:47:14;;;;;;;10.38;3.10;;;;;;;;;;6250074;22;20022;-86
2024/01/03 03:49:40;;;;;;;11.27;2.50;;;;;;;;;;6250321;22;20016;-85
2024/01/03 03:52:06;;;;;;;16.05;3.10;;;;;;;;;;6249742;22;20020;-86
2024/01/03 03:54:33;;;;;;;11.57;2.60;;;;;;;;;;6250300;22;20026;-86
2024/01/03 03:56:59;;;;;;;12.90;3.35;;;;;;;;;;6249874;22;20047;-86
2024/01/03 03:59:27;;;;;;;7.07;2.70;;;;;;;;;;6249809;22;20472;-85
2024/01/03 04:01:54;;;;;;;10.52;3.22;;;;;;;;;;6276995;22;20023;-85
2024/01/03 04:04:20;;;;;;;9.60;2.85;;;;;;;;;;6254903;22;20094;-85
2024/01/03 04:06:49;;;;;;;8.07;2.53;;;;;;;;;;6254376;22;20011;-85
2024/01/03 04:09:16;;;;;;;9.77;2.75;;;;;;;;;;6255185;22;20042;-85
2024/01/03 04:11:45;;;;;;;7.05;2.63;;;;;;;;;;6254886;22;20019;-85
2024/01/03 04:14:11;;;;;;;11.75;2.95;;;;;;;;;;6254892;22;20336;-85
2024/01/03 04:16:37;;;;;;;9.88;2.80;;;;;;;;;;6254686;22;20019;-85
2024/01/03 04:19:04;;;;;;;9.60;3.38;;;;;;;;;;6280238;22;20576;-85
2024/01/03 04:21:30;;;;;;;14.50;2.83;;;;;;;;;;6254733;22;20034;-85
2024/01/03 04:23:56;;;;;;;16.38;4.13;;;;;;;;;;6254490;22;20426;-85
2024/01/03 04:26:23;;;;;;;12.68;2.65;;;;;;;;;;6254353;22;20019;-85
2024/01/03 04:28:49;;;;;;;13.43;4.38;;;;;;;;;;6255082;22;20151;-85
2024/01/03 04:31:15;;;;;;;9.43;3.90;;;;;;;;;;6254519;22;20015;-85
2024/01/03 04:33:44;;;;;;;13.32;3.28;;;;;;;;;;6254761;22;20021;-85
2024/01/03 04:36:11;;;;;;;16.55;3.55;;;;;;;;;;6254459;22;20015;-84
2024/01/03 04:38:37;;;;;;;16.90;4.22;;;;;;;;;;6254761;22;20097;-86
2024/01/03 04:41:03;;;;;;;11.38;2.50;;;;;;;;;;6254427;22;20015;-84
2024/01/03 04:43:29;;;;;;;12.27;3.15;;;;;;;;;;6254608;22;20054;-85
2024/01/03 04:45:56;;;;;;;10.15;3.28;;;;;;;;;;6254429;22;20372;-84
2024/01/03 04:48:27;;;;;;;12.55;3.22;;;;;;;;;;6255073;22;20011;-85
2024/01/03 04:50:53;;;;;;;13.77;3.40;;;;;;;;;;6253960;22;20504;-84
2024/01/03 04:53:20;;;;;;;11.07;2.72;;;;;;;;;;6254893;22;20018;-84
2024/01/03 04:55:46;;;;;;;9.02;2.47;;;;;;;;;;6254867;22;20015;-85
2024/01/03 04:58:15;;;;;;;10.95;3.08;;;;;;;;;;6280183;22;20019;-85
2024/01/03 05:00:41;;;;;;;12.23;2.75;;;;;;;;;;6255029;22;20015;-83
2024/01/03 05:03:07;;;;;;;10.18;2.65;;;;;;;;;;6254434;22;20019;-84
2024/01/03 05:05:33;;;;;;;9.35;2.75;;;;;;;;;;6254370;22;20451;-85
2024/01/03 05:07:59;;;;;;;10.98;2.67;;;;;;;;;;6254179;22;20157;-84
2024/01/03 05:10:25;;;;;;;14.25;3.50;;;;;;;;;;6254116;22;20015;-84
2024/01/03 05:12:51;;;;;;;11.98;2.92;;;;;;;;;;6254700;22;20478;-84
2024/01/03 05:15:18;;;;;;;7.10;3.05;;;;;;;;;;6254237;22;20015;-84
2024/01/03 05:17:45;;;;;;;11.18;3.15;;;;;;;;;;6254922;22;20336;-84
2024/01/03 05:20:11;;;;;;;12.80;2.85;;;;;;;;;;6254575;22;20019;-84
2024/01/03 05:22:37;;;;;;;13.43;3.25;;;;;;;;;;6254064;22;20064;-84
2024/01/03 05:25:03;;;;;;;17.33;4.30;;;;;;;;;;6254473;22;20018;-84
2024/01/03 05:27:30;;;;;;;9.48;3.03;;;;;;;;;;6254517;22;20030;-84
2024/01/03 05:29:56;;;;;;;16.92;3.47;;;;;;;;;;6279958;22;20047;-84
2024/01/03 05:32:25;;;;;;;11.43;3.83;;;;;;;;;;6254695;22;20102;-84
2024/01/03 05:34:54;;;;;;;9.20;3.22;;;;;;;;;;6253920;22;20015;-84
2024/01/03 05:37:20;;;;;;;14.07;3.30;;;;;;;;;;6280046;22;20097;-84
2024/01/03 05:39:48;;;;;;;9.10;2.88;;;;;;;;;;6254181;22;20012;-84
2024/01/03 05:42:14;;;;;;;10.75;2.90;;;;;;;;;;6254428;22;20011;-85
2024/01/03 05:44:43;;;;;;;10.75;2.33;;;;;;;;;;6254359;22;20012;-84
2024/01/03 05:47:09;;;;;;;10.60;2.92;;;;;;;;;;6254252;22;20084;-84
2024/01/03 05:49:35;;;;;;;12.48;3.60;;;;;;;;;;6254082;22;20015;-83
2024/01/03 05:52:01;;;;;;;8.75;2.70;;;;;;;;;;6254067;22;20050;-84
2024/01/03 05:54:31;;;;;;;8.18;2.55;;;;;;;;;;6279609;22;20011;-83
2024/01/03 05:56:59;;;;;;;5.53;2.78;;;;;;;;;;6253961;22;20048;-84
2024/01/03 05:59:25;;;;;;;6.53;2.50;;;;;;;;;;6254908;22;20023;-83
2024/01/03 06:01:52;;;;;;;14.05;3.20;;;;;;;;;;6254443;22;20086;-83
2024/01/03 06:04:18;;;;;;;8.55;2.72;;;;;;;;;;6254526;22;20019;-83
2024/01/03 06:06:44;;;;;;;7.78;2.17;;;;;;;;;;6253954;22;20098;-83
2024/01/03 06:09:14;;;;;;;6.28;2.30;;;;;;;;;;6254353;22;20098;-84
2024/01/03 06:11:40;;;;;;;5.07;2.78;;;;;;;;;;6253858;22;20019;-83
2024/01/03 06:14:06;;;;;;;6.30;2.35;;;;;;;;;;6279451;22;20050;-84
2024/01/03 06:16:32;;;;;;;4.88;2.17;;;;;;;;;;6253840;22;20058;-84
2024/01/03 06:18:58;;;;;;;7.85;2.47;;;;;;;;;;6254389;22;20019;-84
2024/01/03 06:21:32;;;;;;;9.65;3.17;;;;;;;;;;6255663;22;20019;-84
2024/01/03 06:24:02;;;;;;;7.70;2.70;;;;;;;;;;6255791;22;20022;-84
2024/01/03 06:26:30;;;;;;;14.43;3.90;;;;;;;;;;6255331;22;20090;-84
2024/01/03 06:28:59;;;;;;;9.00;3.00;;;;;;;;;;6255740;22;20015;-84
2024/01/03 06:31:26;;;;;;;12.52;3.38;;;;;;;;;;6281057;22;20015;-85
2024/01/03 06:33:52;;;;;;;12.88;4.32;;;;;;;;;;6254537;22;20016;-84
2024/01/03 06:36:18;;;;;;;21.10;4.53;;;;;;;;;;6255251;22;20382;-85
2024/01/03 06:38:50;;;;;;;19.52;4.00;;;;;;;;;;6255625;22;20431;-86
2024/01/03 06:41:17;;;;;;;21.50;4.75;;;;;;;;;;6255885;22;20080;-85
2024/01/03 06:43:43;;;;;;;18.73;4.35;;;;;;;;;;6255888;22;20020;-84
2024/01/03 06:46:10;;;;;;;10.00;2.75;;;;;;;;;;6256819;22;20027;-82
2024/01/03 06:48:36;;;;;;;7.25;2.55;;;;;;;;;;6259743;22;20050;-81
2024/01/03 06:51:05;;;;;;;18.73;3.83;;;;;;;;;;6256617;22;20074;-83
2024/01/03 06:53:31;;;;;;;19.95;4.50;;;;;;;;;;6255385;22;20022;-83
2024/01/03 06:55:59;;;;;;;16.50;3.65;;;;;;;;;;6281354;22;20019;-84
2024/01/03 06:58:49;;;;;;;;;;;;;;;;;;;;;
2024/01/03 07:02:00;;;;;;;18.27;4.50;;;;;;;;;;6279709;22;20125;-85
2024/01/03 07:08:08;;;;;;;20.77;4.35;;;;;;;;;;6183153;23;20075;-85
2024/01/03 07:11:20;;;;;;;;;;;;;;;;;;;;;
2024/01/03 07:14:15;;;;;;;;;;;;;;;;;;;;;
2024/01/03 07:17:30;;;;;;;16.47;3.70;;;;;;;;;;6094748;23;20029;-86
2024/01/03 07:20:08;;;;;;;12.50;3.30;;;;;;;;;;6129608;23;20051;-87
2024/01/03 07:22:34;;;;;;;20.27;3.53;;;;;;;;;;6133545;23;20013;-87
2024/01/03 07:25:10;;;;;;;;;;;;;;;;;;;;;
2024/01/03 07:27:40;;;;;;;15.18;4.53;;;;;;;;;;6275104;22;20110;-86
2024/01/03 07:30:29;;;;;;;18.58;3.78;;;;;;;;;;6249894;22;20463;-86
2024/01/03 07:33:44;;;;;;;;;;;;;;;;;;;;;
2024/01/03 07:36:31;;;;;;;22.17;3.90;;;;;;;;;;6182569;23;20350;-86
2024/01/03 07:39:00;;;;;;;22.33;3.83;;;;;;;;;;6133123;23;20053;-86
2024/01/03 07:41:49;;;;;;;18.83;4.15;;;;;;;;;;6216593;22;20029;-87
2024/01/03 07:44:23;;;;;;;21.83;4.13;;;;;;;;;;6249962;22;20026;-87
2024/01/03 07:46:55;;;;;;;19.15;4.55;;;;;;;;;;6250815;22;20403;-86
2024/01/03 07:52:32;;;;;;;19.08;4.68;;;;;;;;;;6264315;22;20438;-87
2024/01/03 08:19:27;;;;;;;7.28;2.58;;;;;;;;;;6279129;22;20016;-87
2024/01/03 08:22:30;;;;;;;11.85;2.75;;;;;;;;;;6280166;22;20019;-86
2024/01/03 08:38:36;;;;;;;14.50;3.90;;;;;;;;;;6307192;22;20396;-84
2024/01/03 08:41:21;;;;;;;15.93;3.67;;;;;;;;;;6284178;22;20064;-89
2024/01/03 08:44:37;;;;;;;;;;;;;;;;;;;;;
2024/01/03 11:07:32;;;;;;;7.53;2.30;;;;;;;;;;6178108;23;20095;-86
2024/01/03 11:09:59;;;;;;;10.30;3.55;;;;;;;;;;6220041;22;20294;-86
2024/01/03 11:12:34;;;;;;;10.43;2.83;;;;;;;;;;6223644;22;20027;-85
2024/01/03 11:15:38;;;;;;;15.93;3.22;;;;;;;;;;6223855;22;20344;-85
2024/01/03 11:18:07;;;;;;;;;;;;;;;;;;6099655;23;20315;-86
2024/01/03 11:27:45;;;;;;;15.75;3.33;;;;;;;;;;6045075;23;20026;-86
2024/01/03 13:58:58;;;;;;;9.30;3.17;;;;;;;;;;6099517;23;20022;-85
2024/01/03 14:55:37;;;;;;;6.95;2.20;;;;;;;;;;6277402;22;20011;-84
2024/01/03 15:05:46;;;;;;;7.45;2.78;;;;;;;;;;6129378;23;20053;-83
2024/01/03 16:19:33;;;;;;;7.03;2.30;;;;;;;;;;6104997;23;20032;-84
2024/01/03 16:22:15;;;;;;;8.50;2.70;;;;;;;;;;6209481;23;20043;-83
2024/01/03 16:24:41;;;;;;;15.50;2.67;;;;;;;;;;6195924;23;20027;-84
2024/01/03 16:27:08;;;;;;;5.03;1.80;;;;;;;;;;6194842;23;20043;-84
2024/01/03 16:30:00;;;;;;;7.65;2.17;;;;;;;;;;6195336;23;20091;-84
2024/01/03 16:33:06;;;;;;;6.97;2.30;;;;;;;;;;6186360;23;20058;-85
2024/01/03 16:35:51;;;;;;;7.78;2.40;;;;;;;;;;6205181;23;20108;-84
2024/01/03 16:38:42;;;;;;;5.18;2.03;;;;;;;;;;6215680;23;20068;-86
2024/01/03 16:41:20;;;;;;;7.13;2.20;;;;;;;;;;6196726;23;20432;-83
2024/01/03 16:47:46;;;;;;;;;;;;;;;;;;;;;
2024/01/03 16:50:55;;;;;;;9.35;2.40;;;;;;;;;;6067806;23;20097;-83
2024/01/03 17:10:04;;;;;;;9.20;2.20;;;;;;;;;;6082200;23;20020;-85
2024/01/03 17:12:39;;;;;;;8.00;1.95;;;;;;;;;;6160045;23;20272;-85
2024/01/03 17:18:51;;;;;;;;;;;;;;;;;;;;;
2024/01/03 17:32:07;;;;;;;;;;;;;;;;;;;;;
2024/01/03 17:34:59;;;;;;;5.30;1.95;;;;;;;;;;6262695;22;20015;-83
2024/01/03 17:38:06;;;;;;;5.50;2.60;;;;;;;;;;6256126;22;20050;-83
2024/01/03 17:44:12;;;;;;;4.82;2.33;;;;;;;;;;6103620;22;20105;-84
2024/01/03 17:49:57;;;;;;;4.03;2.15;;;;;;;;;;6249329;22;20051;-84
2024/01/03 17:52:25;;;;;;;6.18;2.13;;;;;;;;;;6224753;22;20022;-86
2024/01/03 17:54:59;;;;;;;6.35;2.30;;;;;;;;;;6224060;22;20019;-85
2024/01/03 17:57:26;;;;;;;5.35;2.35;;;;;;;;;;6228704;22;20050;-83
2024/01/03 17:59:53;;;;;;;4.65;2.20;;;;;;;;;;6226412;22;20024;-83
2024/01/03 18:02:20;;;;;;;5.22;2.10;;;;;;;;;;6225170;22;20042;-86
2024/01/03 18:04:55;;;;;;;3.67;1.88;;;;;;;;;;6223761;22;20031;-82
2024/01/03 18:07:24;;;;;;;4.75;1.73;;;;;;;;;;6226290;22;20018;-83
2024/01/03 18:09:57;;;;;;;5.72;2.17;;;;;;;;;;6224409;22;20015;-84
2024/01/03 18:12:31;;;;;;;3.47;2.22;;;;;;;;;;6221099;22;20034;-84
2024/01/03 18:14:58;;;;;;;6.22;2.20;;;;;;;;;;6221838;22;20018;-84
2024/01/03 18:17:43;;;;;;;5.40;1.95;;;;;;;;;;6226529;22;20020;-83
2024/01/03 18:23:13;;;;;;;6.78;2.15;;;;;;;;;;6239825;22;20068;-83
2024/01/03 18:26:02;;;;;;;5.03;1.90;;;;;;;;;;6226839;22;20020;-84
2024/01/03 18:28:31;;;;;;;4.22;2.00;;;;;;;;;;6228222;22;20443;-82
2024/01/03 18:31:05;;;;;;;6.25;2.30;;;;;;;;;;6229887;22;20016;-83
2024/01/03 18:33:53;;;;;;;3.85;1.95;;;;;;;;;;6233083;22;20034;-83
2024/01/03 18:36:30;;;;;;;3.95;1.98;;;;;;;;;;6230466;22;20016;-83
2024/01/03 18:39:02;;;;;;;3.85;2.13;;;;;;;;;;6226610;22;20020;-83
2024/01/03 18:47:44;;;;;;;3.92;1.85;;;;;;;;;;6254113;22;20031;-83
2024/01/03 18:50:33;;;;;;;11.43;2.10;;;;;;;;;;6257884;22;20016;-83
2024/01/03 18:53:36;;;;;;;6.22;2.22;;;;;;;;;;6222983;22;20075;-83
2024/01/03 18:56:14;;;;;;;7.60;2.22;;;;;;;;;;6270645;22;20517;-83
2024/01/03 18:58:59;;;;;;;5.22;2.08;;;;;;;;;;6220062;22;20019;-83
2024/01/03 19:01:56;;;;;;;4.25;1.60;;;;;;;;;;6219515;22;20093;-83
2024/01/03 19:11:26;;;;;;;;;;;;;;;;;;;;;
2024/01/03 19:28:52;;;;;;;4.40;2.13;;;;;;;;;;6053440;23;20102;-83
2024/01/03 19:38:21;;;;;;;4.45;2.08;;;;;;;;;;6020626;23;20022;-84
2024/01/03 19:40:51;;;;;;;5.03;2.08;;;;;;;;;;6218242;22;20019;-84
2024/01/03 19:43:40;;;;;;;4.38;1.80;;;;;;;;;;6228876;22;20019;-84
2024/01/03 19:46:12;;;;;;;6.35;1.80;;;;;;;;;;6205913;22;20026;-83
2024/01/03 19:48:46;;;;;;;8.00;2.20;;;;;;;;;;6226209;22;20095;-84
2024/01/03 19:51:22;;;;;;;7.13;3.20;;;;;;;;;;6224242;22;20012;-84
2024/01/03 19:54:01;;;;;;;4.45;2.10;;;;;;;;;;6229669;22;20313;-84
2024/01/03 19:56:48;;;;;;;4.53;2.13;;;;;;;;;;6228847;22;20066;-84
2024/01/03 19:59:18;;;;;;;5.68;2.25;;;;;;;;;;6228963;22;20405;-84
2024/01/03 20:01:58;;;;;;;7.30;2.20;;;;;;;;;;6225580;22;20023;-84
2024/01/03 20:04:46;;;;;;;5.65;2.13;;;;;;;;;;6252353;22;20316;-83
2024/01/03 20:07:18;;;;;;;5.68;1.60;;;;;;;;;;6225787;22;20015;-83
2024/01/03 20:09:55;;;;;;;4.65;1.77;;;;;;;;;;6251661;22;20015;-84
2024/01/03 20:12:29;;;;;;;6.28;2.30;;;;;;;;;;6224112;22;20047;-83
2024/01/03 20:15:01;;;;;;;5.38;1.90;;;;;;;;;;6224256;22;20015;-83
2024/01/03 20:17:30;;;;;;;4.30;1.80;;;;;;;;;;6224088;22;20103;-84
2024/01/03 20:19:56;;;;;;;6.38;1.70;;;;;;;;;;6223555;22;20115;-83
2024/01/03 20:22:31;;;;;;;7.35;1.77;;;;;;;;;;6224896;22;20016;-83
2024/01/03 20:25:00;;;;;;;6.05;2.05;;;;;;;;;;6224900;22;20106;-84
2024/01/03 20:27:29;;;;;;;6.65;2.08;;;;;;;;;;6225639;22;20019;-83
2024/01/03 20:29:58;;;;;;;3.47;1.55;;;;;;;;;;6225564;22;20047;-83
2024/01/03 20:32:26;;;;;;;4.47;1.70;;;;;;;;;;6226348;22;20027;-84
2024/01/03 20:34:53;;;;;;;5.35;1.70;;;;;;;;;;6225881;22;20043;-83
2024/01/03 20:37:21;;;;;;;5.55;1.98;;;;;;;;;;6224182;22;20020;-84
2024/01/03 20:42:50;;;;;;;4.75;2.53;;;;;;;;;;6208675;22;20093;-84
2024/01/03 20:45:27;;;;;;;5.72;2.65;;;;;;;;;;6226848;22;20321;-84
2024/01/03 20:47:55;;;;;;;6.03;2.00;;;;;;;;;;6226500;22;20022;-83
2024/01/03 20:50:34;;;;;;;5.97;1.80;;;;;;;;;;6226592;22;20016;-83
2024/01/03 20:53:12;;;;;;;6.68;1.60;;;;;;;;;;6227296;22;20062;-84
2024/01/03 20:55:48;;;;;;;5.90;1.73;;;;;;;;;;6227583;22;20015;-83
2024/01/03 20:58:20;;;;;;;2.45;1.30;;;;;;;;;;6228624;22;20454;-83
2024/01/03 21:00:52;;;;;;;3.20;1.63;;;;;;;;;;6226770;22;20018;-84
2024/01/03 21:20:23;;;;;;;3.72;1.40;;;;;;;;;;6280015;22;20494;-82
2024/01/03 21:23:28;;;;;;;4.63;1.60;;;;;;;;;;6226423;22;20043;-83
2024/01/03 21:26:14;;;;;;;5.32;2.22;;;;;;;;;;6229483;22;20023;-82
2024/01/03 21:28:46;;;;;;;4.60;1.40;;;;;;;;;;6230111;22;20092;-82
2024/01/03 21:34:21;;;;;;;4.55;1.52;;;;;;;;;;6220712;22;20034;-82
2024/01/03 21:37:19;;;;;;;3.78;1.52;;;;;;;;;;6228750;22;20325;-82
2024/01/03 21:40:32;;;;;;;1.67;1.20;;;;;;;;;;6259119;22;20042;-83
2024/01/03 21:43:01;;;;;;;4.53;1.25;;;;;;;;;;6230368;22;20020;-82
2024/01/03 21:45:37;;;;;;;2.13;1.23;;;;;;;;;;6230318;22;20022;-83
2024/01/03 21:48:22;;;;;;;2.42;1.50;;;;;;;;;;6230511;22;20015;-83
